createdAt,value
2023-01-15T09:47:37.753Z,15.50
2023-01-15T09:52:45.209Z,11.43
2023-01-15T10:30:02.275Z,13.50
2023-01-15T10:41:45.531Z,9.03
2023-01-15T10:46:19.321Z,7.37
2023-01-15T10:51:13.474Z,12.43
2023-01-15T11:01:26.312Z,9.70
2023-01-15T11:17:29.521Z,6.97
2023-01-15T11:21:43.551Z,7.90
2023-01-15T11:25:54.910Z,4.77
2023-01-15T11:30:13.653Z,13.03
2023-01-15T11:34:24.638Z,9.60
2023-01-15T11:48:36.031Z,9.53
2023-01-15T11:52:55.336Z,11.77
2023-01-15T11:57:07.314Z,19.47
2023-01-15T12:01:23.236Z,14.70
2023-01-15T12:05:37.722Z,13.50
2023-01-15T12:10:49.572Z,10.43
2023-01-15T12:15:15.652Z,10.60
2023-01-15T12:19:35.095Z,11.00
2023-01-15T12:24:06.372Z,10.20
2023-01-15T12:28:20.136Z,12.30
2023-01-15T12:32:50.394Z,13.20
2023-01-15T12:37:06.073Z,13.90
2023-01-15T12:41:19.772Z,9.87
2023-01-15T12:45:35.232Z,10.90
2023-01-15T12:50:02.095Z,12.93
2023-01-15T12:54:17.133Z,13.63
2023-01-15T12:58:40.652Z,15.30
2023-01-15T13:03:22.134Z,11.07
2023-01-15T13:07:39.594Z,10.40
2023-01-15T13:11:50.451Z,14.47
2023-01-15T13:16:22.037Z,12.07
2023-01-15T13:20:47.654Z,10.73
2023-01-15T13:25:31.755Z,12.80
2023-01-15T13:30:00.124Z,13.33
2023-01-15T13:34:16.195Z,11.13
2023-01-15T13:38:34.495Z,10.33
2023-01-15T13:42:55.258Z,8.43
2023-01-15T13:47:08.334Z,9.57
2023-01-15T13:51:32.375Z,6.67
2023-01-15T13:55:44.471Z,3.13
2023-01-15T13:59:55.211Z,3.63
2023-01-15T14:04:09.458Z,7.33
2023-01-15T14:08:29.875Z,6.80
2023-01-15T14:12:51.416Z,9.80
2023-01-15T14:17:19.980Z,7.83
2023-01-15T14:21:47.055Z,5.27
2023-01-15T14:26:28.191Z,5.33
2023-01-15T14:35:47.551Z,9.67
2023-01-15T14:40:00.281Z,11.63
2023-01-15T14:44:10.213Z,10.67
2023-01-15T14:48:22.175Z,16.80
2023-01-15T14:52:41.332Z,9.17
2023-01-15T14:56:55.415Z,8.17
2023-01-15T15:01:15.075Z,7.90
2023-01-15T15:05:26.473Z,6.87
2023-01-15T15:09:43.736Z,9.37
2023-01-15T15:14:08.176Z,6.87
2023-01-15T15:18:30.136Z,9.67
2023-01-15T15:22:41.992Z,9.20
2023-01-15T15:26:52.813Z,13.57
2023-01-15T15:31:03.236Z,19.73
2023-01-15T15:35:28.310Z,13.20
2023-01-15T15:39:44.071Z,17.70
2023-01-15T15:44:17.277Z,10.30
2023-01-15T15:48:45.985Z,16.70
2023-01-15T15:52:57.828Z,13.47
2023-01-15T15:57:10.101Z,14.27
2023-01-15T16:01:21.110Z,13.10
2023-01-15T16:05:32.952Z,11.27
2023-01-15T16:09:45.350Z,10.70
2023-01-15T16:14:00.558Z,15.20
2023-01-15T16:18:20.696Z,10.03
2023-01-15T16:22:29.934Z,7.90
2023-01-15T16:26:42.974Z,9.57
2023-01-15T16:30:58.212Z,15.67
2023-01-15T16:35:17.612Z,14.83
2023-01-15T16:39:34.193Z,20.23
2023-01-15T16:48:54.673Z,15.37
2023-01-15T17:28:38.572Z,16.70
2023-01-15T17:32:48.849Z,8.50
2023-01-15T17:36:59.813Z,10.93
2023-01-15T17:41:11.209Z,14.90
2023-01-15T17:45:23.670Z,10.93
2023-01-15T17:49:34.453Z,11.40
2023-01-15T17:53:47.333Z,16.83
2023-01-15T17:58:13.912Z,19.50
2023-01-15T18:02:51.351Z,13.53
2023-01-15T18:07:02.213Z,17.30
2023-01-15T18:11:16.230Z,15.37
2023-01-15T18:15:26.511Z,20.73
2023-01-15T18:20:05.708Z,13.50
2023-01-15T18:29:15.230Z,16.83
2023-01-15T18:33:26.082Z,21.60
2023-01-15T18:37:38.310Z,18.83
2023-01-15T18:42:04.650Z,18.97
2023-01-15T18:46:46.354Z,12.47
2023-01-15T18:50:57.079Z,16.40
2023-01-15T19:05:15.682Z,20.60
2023-01-15T19:09:27.832Z,35.87
2023-01-15T19:19:21.136Z,36.50
2023-01-15T19:33:16.070Z,29.10
2023-01-15T19:37:27.089Z,36.23
2023-01-15T19:41:59.757Z,23.03
2023-01-15T19:46:30.785Z,21.07
2023-01-15T19:50:42.389Z,22.27
2023-01-15T19:55:00.492Z,31.37
2023-01-15T19:59:11.733Z,30.27
2023-01-15T20:08:24.673Z,26.90
2023-01-15T20:12:52.558Z,35.10
2023-01-15T20:17:25.843Z,38.40
2023-01-15T20:22:42.575Z,33.23
2023-01-15T20:27:06.912Z,40.03
2023-01-15T20:31:58.326Z,36.23
2023-01-15T20:53:35.271Z,32.63
2023-01-15T20:58:17.005Z,33.83
2023-01-15T21:18:14.892Z,48.03
2023-01-15T21:22:58.535Z,45.43
2023-01-15T21:38:52.515Z,43.00
2023-01-15T22:12:29.738Z,9.60
2023-01-15T22:18:02.697Z,11.30
2023-01-15T22:32:20.914Z,24.20
2023-01-15T22:43:04.619Z,27.33
2023-01-15T22:47:57.316Z,28.30
2023-01-15T22:53:34.815Z,28.57
2023-01-15T22:57:48.794Z,30.10
2023-01-15T23:02:05.366Z,25.70
2023-01-15T23:11:22.774Z,23.17
2023-01-15T23:15:46.253Z,17.90
2023-01-15T23:19:55.854Z,18.03
2023-01-15T23:24:12.655Z,15.43
2023-01-15T23:28:27.511Z,20.27
2023-01-15T23:32:39.904Z,24.73
2023-01-15T23:36:59.961Z,25.50
2023-01-15T23:46:40.376Z,24.17
2023-01-15T23:51:04.956Z,31.43
